sensor_id;sensor_type;location;lat;lon;timestamp;P1;durP1;ratioP1;P2;durP2;ratioP2
20621;SDS011;10470;42.670;23.354;2023-08-06T00:00:07;5.93;;;3.87;;
20621;SDS011;10470;42.670;23.354;2023-08-06T00:02:35;5.63;;;3.60;;
20621;SDS011;10470;42.670;23.354;2023-08-06T00:05:03;6.60;;;4.00;;
20621;SDS011;10470;42.670;23.354;2023-08-06T00:07:30;4.50;;;3.90;;
20621;SDS011;10470;42.670;23.354;2023-08-06T00:09:57;9.17;;;3.60;;
20621;SDS011;10470;42.670;23.354;2023-08-06T00:12:24;6.47;;;3.93;;
20621;SDS011;10470;42.670;23.354;2023-08-06T00:14:53;6.10;;;3.93;;
20621;SDS011;10470;42.670;23.354;2023-08-06T00:17:21;6.00;;;3.40;;
20621;SDS011;10470;42.670;23.354;2023-08-06T00:19:48;5.63;;;3.63;;
20621;SDS011;10470;42.670;23.354;2023-08-06T00:22:16;6.67;;;4.27;;
20621;SDS011;10470;42.670;23.354;2023-08-06T00:24:43;6.27;;;4.60;;
20621;SDS011;10470;42.670;23.354;2023-08-06T00:27:10;4.70;;;4.13;;
20621;SDS011;10470;42.670;23.354;2023-08-06T00:29:38;4.67;;;3.80;;
20621;SDS011;10470;42.670;23.354;2023-08-06T00:32:05;5.63;;;4.10;;
20621;SDS011;10470;42.670;23.354;2023-08-06T00:34:33;5.20;;;4.10;;
20621;SDS011;10470;42.670;23.354;2023-08-06T00:37:00;4.33;;;4.00;;
20621;SDS011;10470;42.670;23.354;2023-08-06T00:39:28;5.17;;;4.50;;
20621;SDS011;10470;42.670;23.354;2023-08-06T00:41:55;5.47;;;4.03;;
20621;SDS011;10470;42.670;23.354;2023-08-06T00:44:23;5.50;;;4.20;;
20621;SDS011;10470;42.670;23.354;2023-08-06T00:46:50;6.80;;;4.23;;
20621;SDS011;10470;42.670;23.354;2023-08-06T00:49:18;4.57;;;4.07;;
20621;SDS011;10470;42.670;23.354;2023-08-06T00:51:45;5.70;;;4.10;;
20621;SDS011;10470;42.670;23.354;2023-08-06T00:54:13;6.50;;;4.37;;
20621;SDS011;10470;42.670;23.354;2023-08-06T00:56:41;6.07;;;4.07;;
20621;SDS011;10470;42.670;23.354;2023-08-06T00:59:09;7.17;;;5.50;;
20621;SDS011;10470;42.670;23.354;2023-08-06T01:01:38;5.63;;;4.57;;
20621;SDS011;10470;42.670;23.354;2023-08-06T01:04:06;6.63;;;4.90;;
20621;SDS011;10470;42.670;23.354;2023-08-06T01:06:36;6.43;;;4.93;;
20621;SDS011;10470;42.670;23.354;2023-08-06T01:09:20;5.57;;;5.07;;
20621;SDS011;10470;42.670;23.354;2023-08-06T01:12:12;7.47;;;5.90;;
20621;SDS011;10470;42.670;23.354;2023-08-06T01:17:34;6.43;;;5.67;;
20621;SDS011;10470;42.670;23.354;2023-08-06T01:20:03;5.93;;;4.90;;
20621;SDS011;10470;42.670;23.354;2023-08-06T01:22:31;5.60;;;5.03;;
20621;SDS011;10470;42.670;23.354;2023-08-06T01:24:57;5.63;;;4.63;;
20621;SDS011;10470;42.670;23.354;2023-08-06T01:27:33;6.07;;;4.80;;
20621;SDS011;10470;42.670;23.354;2023-08-06T01:32:57;5.40;;;4.63;;
20621;SDS011;10470;42.670;23.354;2023-08-06T01:35:27;5.57;;;4.60;;
20621;SDS011;10470;42.670;23.354;2023-08-06T01:37:56;6.63;;;4.70;;
20621;SDS011;10470;42.670;23.354;2023-08-06T01:40:22;8.13;;;5.03;;
20621;SDS011;10470;42.670;23.354;2023-08-06T01:42:50;6.07;;;5.00;;
20621;SDS011;10470;42.670;23.354;2023-08-06T01:45:18;5.43;;;4.47;;
20621;SDS011;10470;42.670;23.354;2023-08-06T01:47:46;6.80;;;4.90;;
20621;SDS011;10470;42.670;23.354;2023-08-06T01:50:13;8.07;;;6.00;;
20621;SDS011;10470;42.670;23.354;2023-08-06T01:52:41;9.00;;;6.00;;
20621;SDS011;10470;42.670;23.354;2023-08-06T01:55:09;9.23;;;5.97;;
20621;SDS011;10470;42.670;23.354;2023-08-06T01:57:37;7.50;;;6.00;;
20621;SDS011;10470;42.670;23.354;2023-08-06T02:00:04;10.70;;;9.00;;
20621;SDS011;10470;42.670;23.354;2023-08-06T02:02:31;13.07;;;10.50;;
20621;SDS011;10470;42.670;23.354;2023-08-06T02:05:01;12.77;;;10.33;;
20621;SDS011;10470;42.670;23.354;2023-08-06T02:07:29;11.20;;;8.87;;
20621;SDS011;10470;42.670;23.354;2023-08-06T02:09:56;10.87;;;8.33;;
20621;SDS011;10470;42.670;23.354;2023-08-06T02:12:22;12.97;;;9.03;;
20621;SDS011;10470;42.670;23.354;2023-08-06T02:14:49;11.97;;;9.37;;
20621;SDS011;10470;42.670;23.354;2023-08-06T02:17:16;8.73;;;6.67;;
20621;SDS011;10470;42.670;23.354;2023-08-06T02:19:43;7.70;;;5.77;;
20621;SDS011;10470;42.670;23.354;2023-08-06T02:22:11;5.47;;;4.80;;
20621;SDS011;10470;42.670;23.354;2023-08-06T02:24:37;5.43;;;4.57;;
20621;SDS011;10470;42.670;23.354;2023-08-06T02:27:04;5.90;;;3.87;;
20621;SDS011;10470;42.670;23.354;2023-08-06T02:29:31;4.93;;;4.43;;
20621;SDS011;10470;42.670;23.354;2023-08-06T02:31:58;4.67;;;4.03;;
20621;SDS011;10470;42.670;23.354;2023-08-06T02:34:28;4.97;;;4.50;;
20621;SDS011;10470;42.670;23.354;2023-08-06T02:36:54;6.77;;;4.50;;
20621;SDS011;10470;42.670;23.354;2023-08-06T02:39:21;5.43;;;4.33;;
20621;SDS011;10470;42.670;23.354;2023-08-06T02:41:49;5.70;;;4.80;;
20621;SDS011;10470;42.670;23.354;2023-08-06T02:44:17;5.80;;;4.07;;
20621;SDS011;10470;42.670;23.354;2023-08-06T02:46:44;5.87;;;4.30;;
20621;SDS011;10470;42.670;23.354;2023-08-06T02:49:12;5.50;;;4.20;;
20621;SDS011;10470;42.670;23.354;2023-08-06T02:51:39;5.50;;;4.30;;
20621;SDS011;10470;42.670;23.354;2023-08-06T02:54:07;5.60;;;4.27;;
20621;SDS011;10470;42.670;23.354;2023-08-06T02:56:34;6.27;;;4.47;;
20621;SDS011;10470;42.670;23.354;2023-08-06T02:59:01;5.03;;;4.43;;
20621;SDS011;10470;42.670;23.354;2023-08-06T03:01:28;5.27;;;4.10;;
20621;SDS011;10470;42.670;23.354;2023-08-06T03:03:55;4.30;;;3.90;;
20621;SDS011;10470;42.670;23.354;2023-08-06T03:06:22;5.90;;;4.20;;
20621;SDS011;10470;42.670;23.354;2023-08-06T03:08:49;5.90;;;4.30;;
20621;SDS011;10470;42.670;23.354;2023-08-06T03:11:16;5.70;;;4.10;;
20621;SDS011;10470;42.670;23.354;2023-08-06T03:13:43;5.20;;;3.97;;
20621;SDS011;10470;42.670;23.354;2023-08-06T03:16:11;6.27;;;4.67;;
20621;SDS011;10470;42.670;23.354;2023-08-06T03:18:38;5.00;;;4.30;;
20621;SDS011;10470;42.670;23.354;2023-08-06T03:21:06;5.73;;;4.93;;
20621;SDS011;10470;42.670;23.354;2023-08-06T03:23:34;5.47;;;4.77;;
20621;SDS011;10470;42.670;23.354;2023-08-06T03:26:04;5.13;;;4.50;;
20621;SDS011;10470;42.670;23.354;2023-08-06T03:28:31;5.93;;;4.50;;
20621;SDS011;10470;42.670;23.354;2023-08-06T03:30:59;5.10;;;4.13;;
20621;SDS011;10470;42.670;23.354;2023-08-06T03:33:30;5.70;;;4.37;;
20621;SDS011;10470;42.670;23.354;2023-08-06T03:35:57;5.43;;;4.53;;
20621;SDS011;10470;42.670;23.354;2023-08-06T03:38:24;5.47;;;4.17;;
20621;SDS011;10470;42.670;23.354;2023-08-06T03:40:51;4.80;;;4.33;;
20621;SDS011;10470;42.670;23.354;2023-08-06T03:43:18;7.40;;;5.20;;
20621;SDS011;10470;42.670;23.354;2023-08-06T03:45:46;5.83;;;5.07;;
20621;SDS011;10470;42.670;23.354;2023-08-06T03:48:12;6.60;;;4.93;;
20621;SDS011;10470;42.670;23.354;2023-08-06T03:50:40;5.80;;;4.90;;
20621;SDS011;10470;42.670;23.354;2023-08-06T03:53:07;9.27;;;4.57;;
20621;SDS011;10470;42.670;23.354;2023-08-06T03:55:34;4.90;;;4.37;;
20621;SDS011;10470;42.670;23.354;2023-08-06T03:58:02;4.70;;;4.30;;
20621;SDS011;10470;42.670;23.354;2023-08-06T04:00:29;7.13;;;5.77;;
20621;SDS011;10470;42.670;23.354;2023-08-06T04:02:57;6.20;;;5.13;;
20621;SDS011;10470;42.670;23.354;2023-08-06T04:05:25;6.03;;;4.40;;
20621;SDS011;10470;42.670;23.354;2023-08-06T04:07:52;4.47;;;3.70;;
20621;SDS011;10470;42.670;23.354;2023-08-06T04:10:20;5.40;;;4.37;;
20621;SDS011;10470;42.670;23.354;2023-08-06T04:12:48;4.60;;;4.20;;
20621;SDS011;10470;42.670;23.354;2023-08-06T04:15:15;5.80;;;4.30;;
20621;SDS011;10470;42.670;23.354;2023-08-06T04:17:43;5.47;;;4.93;;
20621;SDS011;10470;42.670;23.354;2023-08-06T04:20:11;6.67;;;5.37;;
20621;SDS011;10470;42.670;23.354;2023-08-06T04:22:38;8.97;;;7.97;;
20621;SDS011;10470;42.670;23.354;2023-08-06T04:25:05;9.10;;;7.23;;
20621;SDS011;10470;42.670;23.354;2023-08-06T04:27:33;4.30;;;3.90;;
20621;SDS011;10470;42.670;23.354;2023-08-06T04:30:00;6.03;;;3.90;;
20621;SDS011;10470;42.670;23.354;2023-08-06T04:32:27;4.23;;;3.80;;
20621;SDS011;10470;42.670;23.354;2023-08-06T04:34:55;3.47;;;3.17;;
20621;SDS011;10470;42.670;23.354;2023-08-06T04:37:22;5.30;;;4.03;;
20621;SDS011;10470;42.670;23.354;2023-08-06T04:39:50;4.90;;;4.40;;
20621;SDS011;10470;42.670;23.354;2023-08-06T04:42:18;4.63;;;4.23;;
20621;SDS011;10470;42.670;23.354;2023-08-06T04:44:45;5.20;;;4.20;;
20621;SDS011;10470;42.670;23.354;2023-08-06T04:47:11;5.57;;;4.10;;
20621;SDS011;10470;42.670;23.354;2023-08-06T04:49:38;4.83;;;4.43;;
20621;SDS011;10470;42.670;23.354;2023-08-06T04:52:05;8.37;;;4.23;;
20621;SDS011;10470;42.670;23.354;2023-08-06T04:54:33;5.53;;;4.63;;
20621;SDS011;10470;42.670;23.354;2023-08-06T04:57:00;5.23;;;4.73;;
20621;SDS011;10470;42.670;23.354;2023-08-06T04:59:27;5.00;;;4.53;;
20621;SDS011;10470;42.670;23.354;2023-08-06T05:01:55;6.30;;;4.73;;
20621;SDS011;10470;42.670;23.354;2023-08-06T05:04:23;7.27;;;6.57;;
20621;SDS011;10470;42.670;23.354;2023-08-06T05:06:49;5.27;;;4.77;;
20621;SDS011;10470;42.670;23.354;2023-08-06T05:09:18;5.97;;;4.77;;
20621;SDS011;10470;42.670;23.354;2023-08-06T05:11:46;8.27;;;6.33;;
20621;SDS011;10470;42.670;23.354;2023-08-06T05:14:14;6.23;;;5.37;;
20621;SDS011;10470;42.670;23.354;2023-08-06T05:16:41;6.47;;;5.87;;
20621;SDS011;10470;42.670;23.354;2023-08-06T05:19:09;6.53;;;5.40;;
20621;SDS011;10470;42.670;23.354;2023-08-06T05:21:36;6.00;;;5.40;;
20621;SDS011;10470;42.670;23.354;2023-08-06T05:24:03;6.33;;;5.73;;
20621;SDS011;10470;42.670;23.354;2023-08-06T05:26:30;7.23;;;5.80;;
20621;SDS011;10470;42.670;23.354;2023-08-06T05:28:57;6.00;;;5.40;;
20621;SDS011;10470;42.670;23.354;2023-08-06T05:31:24;5.77;;;5.27;;
20621;SDS011;10470;42.670;23.354;2023-08-06T05:33:52;7.70;;;6.40;;
20621;SDS011;10470;42.670;23.354;2023-08-06T05:36:19;7.53;;;6.70;;
20621;SDS011;10470;42.670;23.354;2023-08-06T05:38:47;10.47;;;7.43;;
20621;SDS011;10470;42.670;23.354;2023-08-06T05:41:15;9.03;;;7.57;;
20621;SDS011;10470;42.670;23.354;2023-08-06T05:43:43;11.67;;;10.43;;
20621;SDS011;10470;42.670;23.354;2023-08-06T05:46:09;13.40;;;11.03;;
20621;SDS011;10470;42.670;23.354;2023-08-06T05:48:36;14.13;;;10.43;;
20621;SDS011;10470;42.670;23.354;2023-08-06T05:51:03;12.83;;;10.70;;
20621;SDS011;10470;42.670;23.354;2023-08-06T05:53:32;15.73;;;10.93;;
20621;SDS011;10470;42.670;23.354;2023-08-06T05:55:58;9.27;;;7.63;;
20621;SDS011;10470;42.670;23.354;2023-08-06T05:58:25;9.77;;;7.57;;
20621;SDS011;10470;42.670;23.354;2023-08-06T06:00:56;6.13;;;5.50;;
20621;SDS011;10470;42.670;23.354;2023-08-06T06:03:24;9.47;;;6.57;;
20621;SDS011;10470;42.670;23.354;2023-08-06T06:05:51;7.63;;;5.90;;
20621;SDS011;10470;42.670;23.354;2023-08-06T06:08:18;8.40;;;7.43;;
20621;SDS011;10470;42.670;23.354;2023-08-06T06:10:46;4.60;;;4.20;;
20621;SDS011;10470;42.670;23.354;2023-08-06T06:13:13;4.00;;;3.70;;
20621;SDS011;10470;42.670;23.354;2023-08-06T06:15:41;4.00;;;3.43;;
20621;SDS011;10470;42.670;23.354;2023-08-06T06:18:07;3.83;;;3.10;;
20621;SDS011;10470;42.670;23.354;2023-08-06T06:20:34;3.57;;;3.00;;
20621;SDS011;10470;42.670;23.354;2023-08-06T06:23:02;3.60;;;3.00;;
20621;SDS011;10470;42.670;23.354;2023-08-06T06:25:30;4.37;;;3.23;;
20621;SDS011;10470;42.670;23.354;2023-08-06T06:27:57;3.63;;;2.60;;
20621;SDS011;10470;42.670;23.354;2023-08-06T06:30:26;2.77;;;2.43;;
20621;SDS011;10470;42.670;23.354;2023-08-06T06:32:53;3.77;;;2.57;;
20621;SDS011;10470;42.670;23.354;2023-08-06T06:35:20;2.73;;;2.40;;
20621;SDS011;10470;42.670;23.354;2023-08-06T06:37:47;3.47;;;2.87;;
20621;SDS011;10470;42.670;23.354;2023-08-06T06:40:16;2.40;;;2.20;;
20621;SDS011;10470;42.670;23.354;2023-08-06T06:42:43;2.87;;;2.40;;
20621;SDS011;10470;42.670;23.354;2023-08-06T06:45:10;2.83;;;2.20;;
20621;SDS011;10470;42.670;23.354;2023-08-06T06:47:37;4.00;;;2.37;;
20621;SDS011;10470;42.670;23.354;2023-08-06T06:50:04;3.87;;;2.63;;
20621;SDS011;10470;42.670;23.354;2023-08-06T06:52:33;2.60;;;2.40;;
20621;SDS011;10470;42.670;23.354;2023-08-06T06:55:00;3.23;;;2.50;;
20621;SDS011;10470;42.670;23.354;2023-08-06T06:57:27;2.60;;;2.40;;
20621;SDS011;10470;42.670;23.354;2023-08-06T06:59:54;2.93;;;2.73;;
20621;SDS011;10470;42.670;23.354;2023-08-06T07:02:21;3.20;;;3.00;;
20621;SDS011;10470;42.670;23.354;2023-08-06T07:04:49;4.57;;;2.97;;
20621;SDS011;10470;42.670;23.354;2023-08-06T07:07:18;3.30;;;3.00;;
20621;SDS011;10470;42.670;23.354;2023-08-06T07:09:44;3.03;;;2.73;;
20621;SDS011;10470;42.670;23.354;2023-08-06T07:12:11;2.90;;;2.70;;
20621;SDS011;10470;42.670;23.354;2023-08-06T07:14:38;3.53;;;2.87;;
20621;SDS011;10470;42.670;23.354;2023-08-06T07:17:05;2.90;;;2.57;;
20621;SDS011;10470;42.670;23.354;2023-08-06T07:19:33;3.13;;;2.80;;
20621;SDS011;10470;42.670;23.354;2023-08-06T07:21:59;3.33;;;2.90;;
20621;SDS011;10470;42.670;23.354;2023-08-06T07:24:26;2.90;;;2.60;;
20621;SDS011;10470;42.670;23.354;2023-08-06T07:26:53;3.47;;;3.07;;
20621;SDS011;10470;42.670;23.354;2023-08-06T07:29:21;3.40;;;3.10;;
20621;SDS011;10470;42.670;23.354;2023-08-06T07:31:49;3.40;;;3.10;;
20621;SDS011;10470;42.670;23.354;2023-08-06T07:34:17;3.87;;;3.03;;
20621;SDS011;10470;42.670;23.354;2023-08-06T07:36:45;3.30;;;3.00;;
20621;SDS011;10470;42.670;23.354;2023-08-06T07:39:13;4.50;;;3.03;;
20621;SDS011;10470;42.670;23.354;2023-08-06T07:41:43;4.23;;;3.10;;
20621;SDS011;10470;42.670;23.354;2023-08-06T07:44:09;4.10;;;3.07;;
20621;SDS011;10470;42.670;23.354;2023-08-06T07:46:37;6.17;;;3.00;;
20621;SDS011;10470;42.670;23.354;2023-08-06T07:49:06;4.63;;;3.20;;
20621;SDS011;10470;42.670;23.354;2023-08-06T07:51:33;3.80;;;2.90;;
20621;SDS011;10470;42.670;23.354;2023-08-06T07:54:00;3.67;;;2.80;;
20621;SDS011;10470;42.670;23.354;2023-08-06T07:56:28;5.73;;;4.07;;
20621;SDS011;10470;42.670;23.354;2023-08-06T07:58:55;3.90;;;3.10;;
20621;SDS011;10470;42.670;23.354;2023-08-06T08:01:22;3.73;;;2.70;;
20621;SDS011;10470;42.670;23.354;2023-08-06T08:03:50;3.40;;;2.93;;
20621;SDS011;10470;42.670;23.354;2023-08-06T08:06:17;3.80;;;3.27;;
20621;SDS011;10470;42.670;23.354;2023-08-06T08:08:44;3.43;;;3.13;;
20621;SDS011;10470;42.670;23.354;2023-08-06T08:11:12;6.87;;;3.67;;
20621;SDS011;10470;42.670;23.354;2023-08-06T08:13:39;3.63;;;3.33;;
20621;SDS011;10470;42.670;23.354;2023-08-06T08:16:07;2.97;;;2.73;;
20621;SDS011;10470;42.670;23.354;2023-08-06T08:18:34;3.43;;;3.13;;
20621;SDS011;10470;42.670;23.354;2023-08-06T08:21:02;3.60;;;3.30;;
20621;SDS011;10470;42.670;23.354;2023-08-06T08:23:29;4.10;;;3.33;;
20621;SDS011;10470;42.670;23.354;2023-08-06T08:25:57;3.43;;;3.13;;
20621;SDS011;10470;42.670;23.354;2023-08-06T08:28:25;5.00;;;3.40;;
20621;SDS011;10470;42.670;23.354;2023-08-06T08:30:53;2.93;;;2.73;;
20621;SDS011;10470;42.670;23.354;2023-08-06T08:33:22;3.20;;;2.90;;
20621;SDS011;10470;42.670;23.354;2023-08-06T08:35:49;3.80;;;3.27;;
20621;SDS011;10470;42.670;23.354;2023-08-06T08:38:17;3.10;;;2.90;;
20621;SDS011;10470;42.670;23.354;2023-08-06T08:40:45;3.40;;;3.10;;
20621;SDS011;10470;42.670;23.354;2023-08-06T08:43:17;3.17;;;2.97;;
20621;SDS011;10470;42.670;23.354;2023-08-06T08:45:49;3.10;;;2.90;;
20621;SDS011;10470;42.670;23.354;2023-08-06T08:48:18;3.90;;;2.90;;
20621;SDS011;10470;42.670;23.354;2023-08-06T08:50:48;3.57;;;3.10;;
20621;SDS011;10470;42.670;23.354;2023-08-06T08:53:17;3.70;;;3.23;;
20621;SDS011;10470;42.670;23.354;2023-08-06T08:55:46;3.70;;;3.40;;
20621;SDS011;10470;42.670;23.354;2023-08-06T08:58:15;3.90;;;3.10;;
20621;SDS011;10470;42.670;23.354;2023-08-06T09:00:42;5.27;;;3.43;;
20621;SDS011;10470;42.670;23.354;2023-08-06T09:03:12;5.97;;;3.43;;
20621;SDS011;10470;42.670;23.354;2023-08-06T09:05:43;3.30;;;3.10;;
20621;SDS011;10470;42.670;23.354;2023-08-06T09:08:13;3.50;;;3.17;;
20621;SDS011;10470;42.670;23.354;2023-08-06T09:10:44;3.73;;;3.23;;
20621;SDS011;10470;42.670;23.354;2023-08-06T09:13:15;3.37;;;2.80;;
20621;SDS011;10470;42.670;23.354;2023-08-06T09:15:44;4.80;;;3.20;;
20621;SDS011;10470;42.670;23.354;2023-08-06T09:18:12;3.97;;;3.57;;
20621;SDS011;10470;42.670;23.354;2023-08-06T09:20:40;3.40;;;3.10;;
20621;SDS011;10470;42.670;23.354;2023-08-06T09:23:09;4.30;;;3.03;;
20621;SDS011;10470;42.670;23.354;2023-08-06T09:25:38;3.67;;;3.10;;
20621;SDS011;10470;42.670;23.354;2023-08-06T09:28:09;3.60;;;3.30;;
20621;SDS011;10470;42.670;23.354;2023-08-06T09:30:37;3.70;;;3.20;;
20621;SDS011;10470;42.670;23.354;2023-08-06T09:33:08;4.57;;;3.40;;
20621;SDS011;10470;42.670;23.354;2023-08-06T09:35:36;4.47;;;3.00;;
20621;SDS011;10470;42.670;23.354;2023-08-06T09:38:08;3.57;;;3.00;;
20621;SDS011;10470;42.670;23.354;2023-08-06T09:40:37;3.77;;;2.73;;
20621;SDS011;10470;42.670;23.354;2023-08-06T09:43:06;2.60;;;2.37;;
20621;SDS011;10470;42.670;23.354;2023-08-06T09:45:34;2.60;;;2.40;;
20621;SDS011;10470;42.670;23.354;2023-08-06T09:48:04;3.90;;;2.70;;
20621;SDS011;10470;42.670;23.354;2023-08-06T09:50:32;5.43;;;2.97;;
20621;SDS011;10470;42.670;23.354;2023-08-06T09:53:05;3.43;;;3.00;;
20621;SDS011;10470;42.670;23.354;2023-08-06T09:55:35;5.37;;;2.70;;
20621;SDS011;10470;42.670;23.354;2023-08-06T09:58:03;2.53;;;2.00;;
20621;SDS011;10470;42.670;23.354;2023-08-06T10:00:31;3.13;;;2.70;;
20621;SDS011;10470;42.670;23.354;2023-08-06T10:03:01;3.43;;;2.37;;
20621;SDS011;10470;42.670;23.354;2023-08-06T10:05:29;2.37;;;2.20;;
20621;SDS011;10470;42.670;23.354;2023-08-06T10:07:59;2.87;;;2.17;;
20621;SDS011;10470;42.670;23.354;2023-08-06T10:10:29;2.87;;;2.50;;
20621;SDS011;10470;42.670;23.354;2023-08-06T10:12:58;2.67;;;2.20;;
20621;SDS011;10470;42.670;23.354;2023-08-06T10:15:28;2.43;;;1.83;;
20621;SDS011;10470;42.670;23.354;2023-08-06T10:17:58;4.47;;;2.30;;
20621;SDS011;10470;42.670;23.354;2023-08-06T10:20:32;1.93;;;1.80;;
20621;SDS011;10470;42.670;23.354;2023-08-06T10:23:04;2.60;;;2.23;;
20621;SDS011;10470;42.670;23.354;2023-08-06T10:25:33;2.67;;;2.47;;
20621;SDS011;10470;42.670;23.354;2023-08-06T10:28:12;5.43;;;2.30;;
20621;SDS011;10470;42.670;23.354;2023-08-06T10:30:44;2.63;;;2.40;;
20621;SDS011;10470;42.670;23.354;2023-08-06T10:33:13;4.03;;;2.00;;
20621;SDS011;10470;42.670;23.354;2023-08-06T10:35:45;2.73;;;2.50;;
20621;SDS011;10470;42.670;23.354;2023-08-06T10:38:21;3.00;;;2.70;;
20621;SDS011;10470;42.670;23.354;2023-08-06T10:45:55;4.53;;;2.70;;
20621;SDS011;10470;42.670;23.354;2023-08-06T10:51:06;2.70;;;2.43;;
20621;SDS011;10470;42.670;23.354;2023-08-06T10:53:37;2.57;;;2.30;;
20621;SDS011;10470;42.670;23.354;2023-08-06T10:56:12;2.30;;;2.10;;
20621;SDS011;10470;42.670;23.354;2023-08-06T10:58:41;3.03;;;2.73;;
20621;SDS011;10470;42.670;23.354;2023-08-06T11:01:10;3.47;;;2.63;;
20621;SDS011;10470;42.670;23.354;2023-08-06T11:03:38;3.20;;;2.90;;
20621;SDS011;10470;42.670;23.354;2023-08-06T11:06:06;6.33;;;2.93;;
20621;SDS011;10470;42.670;23.354;2023-08-06T11:08:36;2.70;;;2.40;;
20621;SDS011;10470;42.670;23.354;2023-08-06T11:11:09;2.77;;;2.40;;
20621;SDS011;10470;42.670;23.354;2023-08-06T11:13:40;3.20;;;2.90;;
20621;SDS011;10470;42.670;23.354;2023-08-06T11:16:14;2.90;;;2.60;;
20621;SDS011;10470;42.670;23.354;2023-08-06T11:18:41;2.90;;;2.70;;
20621;SDS011;10470;42.670;23.354;2023-08-06T11:21:09;4.90;;;3.00;;
20621;SDS011;10470;42.670;23.354;2023-08-06T11:23:35;3.97;;;3.50;;
20621;SDS011;10470;42.670;23.354;2023-08-06T11:26:04;3.00;;;2.80;;
20621;SDS011;10470;42.670;23.354;2023-08-06T11:28:33;3.13;;;2.83;;
20621;SDS011;10470;42.670;23.354;2023-08-06T11:31:00;3.40;;;3.10;;
20621;SDS011;10470;42.670;23.354;2023-08-06T11:33:29;4.20;;;3.33;;
20621;SDS011;10470;42.670;23.354;2023-08-06T11:35:57;3.87;;;3.33;;
20621;SDS011;10470;42.670;23.354;2023-08-06T11:38:26;3.40;;;3.10;;
20621;SDS011;10470;42.670;23.354;2023-08-06T11:40:56;6.63;;;3.57;;
20621;SDS011;10470;42.670;23.354;2023-08-06T11:43:23;4.10;;;3.70;;
20621;SDS011;10470;42.670;23.354;2023-08-06T11:45:50;4.00;;;3.70;;
20621;SDS011;10470;42.670;23.354;2023-08-06T11:48:20;3.70;;;3.40;;
20621;SDS011;10470;42.670;23.354;2023-08-06T11:50:48;3.77;;;3.47;;
20621;SDS011;10470;42.670;23.354;2023-08-06T11:53:15;4.17;;;3.53;;
20621;SDS011;10470;42.670;23.354;2023-08-06T11:55:42;5.53;;;3.50;;
20621;SDS011;10470;42.670;23.354;2023-08-06T11:58:12;4.17;;;3.73;;
20621;SDS011;10470;42.670;23.354;2023-08-06T12:00:39;4.40;;;3.97;;
20621;SDS011;10470;42.670;23.354;2023-08-06T12:03:06;3.67;;;3.37;;
20621;SDS011;10470;42.670;23.354;2023-08-06T12:05:34;4.43;;;3.90;;
20621;SDS011;10470;42.670;23.354;2023-08-06T12:08:03;3.97;;;3.57;;
20621;SDS011;10470;42.670;23.354;2023-08-06T12:10:31;3.33;;;3.03;;
20621;SDS011;10470;42.670;23.354;2023-08-06T12:12:59;4.80;;;3.37;;
20621;SDS011;10470;42.670;23.354;2023-08-06T12:15:26;3.73;;;3.37;;
20621;SDS011;10470;42.670;23.354;2023-08-06T12:17:53;4.00;;;3.60;;
20621;SDS011;10470;42.670;23.354;2023-08-06T12:20:21;4.33;;;3.70;;
20621;SDS011;10470;42.670;23.354;2023-08-06T12:22:49;3.77;;;3.40;;
20621;SDS011;10470;42.670;23.354;2023-08-06T12:25:16;4.63;;;4.23;;
20621;SDS011;10470;42.670;23.354;2023-08-06T12:27:44;4.50;;;4.00;;
20621;SDS011;10470;42.670;23.354;2023-08-06T12:30:13;4.70;;;4.30;;
20621;SDS011;10470;42.670;23.354;2023-08-06T12:32:41;4.70;;;4.40;;
20621;SDS011;10470;42.670;23.354;2023-08-06T12:35:08;4.93;;;4.53;;
20621;SDS011;10470;42.670;23.354;2023-08-06T12:37:36;4.70;;;4.30;;
20621;SDS011;10470;42.670;23.354;2023-08-06T12:40:06;5.70;;;4.70;;
20621;SDS011;10470;42.670;23.354;2023-08-06T12:42:33;5.30;;;4.80;;
20621;SDS011;10470;42.670;23.354;2023-08-06T12:45:01;6.20;;;5.10;;
20621;SDS011;10470;42.670;23.354;2023-08-06T12:47:28;5.47;;;4.93;;
20621;SDS011;10470;42.670;23.354;2023-08-06T12:49:56;5.60;;;5.00;;
20621;SDS011;10470;42.670;23.354;2023-08-06T12:52:24;5.70;;;4.90;;
20621;SDS011;10470;42.670;23.354;2023-08-06T12:54:52;5.20;;;4.80;;
20621;SDS011;10470;42.670;23.354;2023-08-06T12:57:20;5.57;;;4.73;;
20621;SDS011;10470;42.670;23.354;2023-08-06T12:59:47;5.40;;;5.00;;
20621;SDS011;10470;42.670;23.354;2023-08-06T13:02:15;5.63;;;5.03;;
20621;SDS011;10470;42.670;23.354;2023-08-06T13:04:43;5.30;;;4.90;;
20621;SDS011;10470;42.670;23.354;2023-08-06T13:07:10;6.57;;;4.90;;
20621;SDS011;10470;42.670;23.354;2023-08-06T13:09:38;6.83;;;6.13;;
20621;SDS011;10470;42.670;23.354;2023-08-06T13:12:06;5.87;;;5.27;;
20621;SDS011;10470;42.670;23.354;2023-08-06T13:14:34;7.17;;;6.47;;
20621;SDS011;10470;42.670;23.354;2023-08-06T13:17:02;7.53;;;6.83;;
20621;SDS011;10470;42.670;23.354;2023-08-06T13:19:30;6.40;;;5.10;;
20621;SDS011;10470;42.670;23.354;2023-08-06T13:21:58;5.83;;;5.03;;
20621;SDS011;10470;42.670;23.354;2023-08-06T13:24:32;6.60;;;5.57;;
20621;SDS011;10470;42.670;23.354;2023-08-06T13:27:00;5.30;;;4.87;;
20621;SDS011;10470;42.670;23.354;2023-08-06T13:29:28;6.10;;;5.50;;
20621;SDS011;10470;42.670;23.354;2023-08-06T13:31:55;5.87;;;5.23;;
20621;SDS011;10470;42.670;23.354;2023-08-06T13:34:22;5.70;;;5.10;;
20621;SDS011;10470;42.670;23.354;2023-08-06T13:36:50;8.17;;;5.40;;
20621;SDS011;10470;42.670;23.354;2023-08-06T13:39:18;8.60;;;6.50;;
20621;SDS011;10470;42.670;23.354;2023-08-06T13:41:46;7.17;;;4.90;;
20621;SDS011;10470;42.670;23.354;2023-08-06T13:44:14;4.53;;;4.17;;
20621;SDS011;10470;42.670;23.354;2023-08-06T13:46:42;7.23;;;5.33;;
20621;SDS011;10470;42.670;23.354;2023-08-06T13:49:10;5.10;;;4.47;;
20621;SDS011;10470;42.670;23.354;2023-08-06T13:51:38;5.03;;;4.57;;
20621;SDS011;10470;42.670;23.354;2023-08-06T13:54:06;5.33;;;4.83;;
20621;SDS011;10470;42.670;23.354;2023-08-06T13:56:34;4.57;;;4.23;;
20621;SDS011;10470;42.670;23.354;2023-08-06T13:59:03;6.20;;;4.70;;
20621;SDS011;10470;42.670;23.354;2023-08-06T14:01:31;4.63;;;3.90;;
20621;SDS011;10470;42.670;23.354;2023-08-06T14:03:59;5.53;;;4.60;;
20621;SDS011;10470;42.670;23.354;2023-08-06T14:06:27;5.90;;;4.50;;
20621;SDS011;10470;42.670;23.354;2023-08-06T14:08:54;5.53;;;4.30;;
20621;SDS011;10470;42.670;23.354;2023-08-06T14:11:21;5.60;;;4.40;;
20621;SDS011;10470;42.670;23.354;2023-08-06T14:13:48;5.87;;;4.40;;
20621;SDS011;10470;42.670;23.354;2023-08-06T14:16:15;4.70;;;4.30;;
20621;SDS011;10470;42.670;23.354;2023-08-06T14:18:42;5.87;;;4.50;;
20621;SDS011;10470;42.670;23.354;2023-08-06T14:21:11;4.70;;;4.10;;
20621;SDS011;10470;42.670;23.354;2023-08-06T14:23:37;4.38;;;4.07;;
20621;SDS011;10470;42.670;23.354;2023-08-06T14:26:06;5.30;;;4.73;;
20621;SDS011;10470;42.670;23.354;2023-08-06T14:28:34;5.72;;;4.05;;
20621;SDS011;10470;42.670;23.354;2023-08-06T14:31:02;5.90;;;4.05;;
20621;SDS011;10470;42.670;23.354;2023-08-06T14:33:29;4.90;;;3.40;;
20621;SDS011;10470;42.670;23.354;2023-08-06T14:35:55;3.93;;;3.63;;
20621;SDS011;10470;42.670;23.354;2023-08-06T14:38:24;4.10;;;3.80;;
20621;SDS011;10470;42.670;23.354;2023-08-06T14:40:50;5.15;;;3.65;;
20621;SDS011;10470;42.670;23.354;2023-08-06T14:43:17;4.15;;;3.50;;
20621;SDS011;10470;42.670;23.354;2023-08-06T14:45:45;4.90;;;3.58;;
20621;SDS011;10470;42.670;23.354;2023-08-06T14:48:13;4.00;;;3.60;;
20621;SDS011;10470;42.670;23.354;2023-08-06T14:50:41;4.63;;;4.00;;